Time;durP1;ratioP1;P1;durP2;ratioP2;P2;SDS_P1;SDS_P2;PMS_P1;PMS_P2;Temp;Humidity;BMP_temperature;BMP_pressure;BME280_temperature;BME280_humidity;BME280_pressure;Samples;Min_cycle;Max_cycle;Signal;HPM_P1;HPM_P2
2021/03/29 00:01:37;;;;;;;8.02;0.85;;;9.00;99.90;;;;;;6190126;23;20008;-79
2021/03/29 00:04:03;;;;;;;7.38;1.45;;;9.00;99.90;;;;;;6162090;23;20348;-80
2021/03/29 00:06:30;;;;;;;7.75;1.15;;;9.00;99.90;;;;;;6191246;23;20001;-80
2021/03/29 00:08:57;;;;;;;6.80;1.25;;;8.90;99.90;;;;;;6188587;23;20052;-79
2021/03/29 00:11:24;;;;;;;7.90;1.67;;;8.90;99.90;;;;;;6188766;23;20360;-79
2021/03/29 00:13:53;;;;;;;11.57;1.90;;;8.80;99.90;;;;;;6188728;23;20001;-80
2021/03/29 00:16:21;;;;;;;7.20;1.15;;;8.80;99.90;;;;;;6163410;23;19997;-78
2021/03/29 00:18:47;;;;;;;6.60;1.73;;;8.80;99.90;;;;;;6189117;23;20008;-80
2021/03/29 00:21:13;;;;;;;6.78;1.10;;;8.80;99.90;;;;;;6162637;23;20235;-79
2021/03/29 00:23:40;;;;;;;6.38;1.73;;;8.80;99.90;;;;;;6188392;23;20337;-78
2021/03/29 00:26:06;;;;;;;8.82;1.23;;;8.80;99.90;;;;;;6190990;23;20012;-80
2021/03/29 00:28:32;;;;;;;8.85;1.10;;;8.70;99.90;;;;;;6188338;23;20004;-78
2021/03/29 00:30:58;;;;;;;6.72;2.38;;;8.70;99.90;;;;;;6188864;23;20083;-78
2021/03/29 00:33:25;;;;;;;7.72;2.95;;;8.60;99.90;;;;;;6161864;23;20368;-79
2021/03/29 00:35:52;;;;;;;7.60;1.10;;;8.60;99.90;;;;;;6188551;23;20004;-78
2021/03/29 00:38:19;;;;;;;7.15;1.45;;;8.70;99.90;;;;;;6190015;23;20004;-78
2021/03/29 00:40:51;;;;;;;2.83;1.35;;;8.60;99.90;;;;;;6190328;23;19997;-78
2021/03/29 00:43:21;;;;;;;6.35;1.75;;;8.70;99.90;;;;;;6191453;23;20401;-79
2021/03/29 00:45:49;;;;;;;9.02;1.67;;;8.70;99.90;;;;;;6190334;23;20001;-79
2021/03/29 00:48:17;;;;;;;13.18;2.10;;;8.80;99.90;;;;;;6164891;23;20005;-81
2021/03/29 00:51:08;;;;;;;8.25;1.42;;;8.80;99.90;;;;;;6164952;23;20001;-80
2021/03/29 00:53:35;;;;;;;8.32;2.53;;;8.70;99.90;;;;;;6191907;23;20009;-81
2021/03/29 00:56:01;;;;;;;8.13;1.77;;;8.70;99.90;;;;;;6163663;23;20029;-79
2021/03/29 00:58:28;;;;;;;8.93;1.63;;;8.70;99.90;;;;;;6191240;23;20059;-79
2021/03/29 01:01:00;;;;;;;8.40;1.60;;;8.80;99.90;;;;;;6164234;23;20005;-77
2021/03/29 01:03:29;;;;;;;11.13;2.55;;;8.70;99.90;;;;;;6188256;23;20329;-78
2021/03/29 01:06:00;;;;;;;;;;;8.70;99.90;;;;;;6189287;23;20059;-80
2021/03/29 01:08:26;;;;;;;8.88;1.33;;;8.80;99.90;;;;;;6190024;23;20315;-78
2021/03/29 01:10:54;;;;;;;9.75;1.58;;;8.80;99.90;;;;;;6189263;23;20067;-79
2021/03/29 01:13:21;;;;;;;4.38;1.55;;;8.70;99.90;;;;;;6165594;23;20008;-78
2021/03/29 01:15:49;;;;;;;12.57;2.35;;;8.80;99.90;;;;;;6165479;23;20001;-80
2021/03/29 01:18:16;;;;;;;12.43;2.80;;;8.80;99.90;;;;;;6188596;23;20072;-77
2021/03/29 01:21:08;;;;;;;7.68;2.05;;;8.80;99.90;;;;;;6162447;23;20005;-79
2021/03/29 01:23:35;;;;;;;10.63;3.15;;;8.80;99.90;;;;;;6162904;23;20005;-80
2021/03/29 01:26:18;;;;;;;17.70;3.05;;;8.70;99.90;;;;;;6189270;23;20009;-79
2021/03/29 01:28:46;;;;;;;9.82;3.55;;;8.80;99.90;;;;;;6138989;23;20012;-79
2021/03/29 01:31:12;;;;;;;11.25;3.33;;;9.00;99.90;;;;;;6191713;23;20149;-79
2021/03/29 01:33:39;;;;;;;7.22;2.67;;;8.80;99.90;;;;;;6167847;23;20017;-80
2021/03/29 01:36:05;;;;;;;10.27;2.88;;;8.80;99.90;;;;;;6191332;23;20004;-74
2021/03/29 01:38:32;;;;;;;12.93;2.38;;;8.80;99.90;;;;;;6164819;23;20001;-80
2021/03/29 01:40:59;;;;;;;8.00;3.38;;;8.70;99.90;;;;;;6192975;23;20017;-80
2021/03/29 01:43:26;;;;;;;9.85;3.13;;;8.70;99.90;;;;;;6166567;23;20341;-80
2021/03/29 01:45:54;;;;;;;12.52;3.17;;;8.80;99.90;;;;;;6190972;23;20009;-79
2021/03/29 01:48:21;;;;;;;18.30;2.92;;;8.80;99.90;;;;;;6188412;23;20001;-79
2021/03/29 01:50:47;;;;;;;7.18;2.95;;;8.80;99.90;;;;;;6188292;23;20425;-79
2021/03/29 01:53:14;;;;;;;11.75;2.63;;;8.80;99.90;;;;;;6168122;23;20008;-80
2021/03/29 01:55:41;;;;;;;9.35;2.70;;;8.70;99.90;;;;;;6194397;23;19997;-79
2021/03/29 01:58:08;;;;;;;12.55;2.97;;;8.70;99.90;;;;;;6166784;23;20008;-79
2021/03/29 02:00:44;;;;;;;7.03;2.53;;;8.70;99.90;;;;;;6189681;23;20029;-79
2021/03/29 02:03:11;;;;;;;7.97;2.42;;;8.70;99.90;;;;;;6163051;23;20012;-79
2021/03/29 02:05:39;;;;;;;7.15;2.65;;;8.70;99.90;;;;;;6187501;23;20001;-81
2021/03/29 02:08:05;;;;;;;6.82;2.70;;;8.70;99.90;;;;;;6189305;23;20001;-80
2021/03/29 02:10:34;;;;;;;5.90;2.83;;;8.80;99.90;;;;;;6190401;23;20432;-81
2021/03/29 02:13:08;;;;;;;;;;;8.80;99.90;;;;;;6162362;23;20025;-78
2021/03/29 02:15:35;;;;;;;7.90;2.45;;;8.80;99.90;;;;;;6163293;23;19985;-80
2021/03/29 02:18:04;;;;;;;8.15;2.17;;;8.80;99.90;;;;;;6189969;23;20024;-80
2021/03/29 02:20:33;;;;;;;10.70;3.38;;;8.70;99.90;;;;;;6162166;23;20471;-80
2021/03/29 02:23:00;;;;;;;5.95;2.33;;;8.70;99.90;;;;;;6163035;23;20009;-78
2021/03/29 02:25:28;;;;;;;7.88;2.90;;;8.70;99.90;;;;;;6188599;23;20062;-78
2021/03/29 02:27:54;;;;;;;14.43;2.50;;;8.80;99.90;;;;;;6162527;23;20005;-78
2021/03/29 02:30:30;;;;;;;8.82;1.98;;;8.60;99.90;;;;;;6189448;23;20400;-80
2021/03/29 02:32:57;;;;;;;23.30;2.17;;;8.70;99.90;;;;;;6188258;23;20088;-78
2021/03/29 02:35:24;;;;;;;9.88;3.60;;;8.70;99.90;;;;;;6164013;23;20001;-79
2021/03/29 02:37:56;;;;;;;8.70;2.17;;;8.70;99.90;;;;;;6186838;22;20009;-79
2021/03/29 02:40:23;;;;;;;5.95;2.85;;;8.20;99.90;;;;;;6161945;23;20005;-79
2021/03/29 02:42:51;;;;;;;8.18;1.98;;;8.60;99.90;;;;;;6162124;23;20091;-78
2021/03/29 02:45:19;;;;;;;10.52;2.92;;;8.70;99.90;;;;;;6160549;23;20029;-78
2021/03/29 02:47:47;;;;;;;9.55;2.42;;;12.50;99.90;;;;;;6189926;23;20329;-78
2021/03/29 02:50:20;;;;;;;6.53;2.00;;;10.90;99.90;;;;;;6189902;23;20424;-78
2021/03/29 02:52:49;;;;;;;4.45;1.75;;;8.80;99.90;;;;;;6188901;23;20008;-80
2021/03/29 02:55:16;;;;;;;7.05;2.25;;;8.90;99.90;;;;;;6164126;23;20049;-80
2021/03/29 02:57:46;;;;;;;8.55;2.13;;;8.90;99.90;;;;;;6188314;23;20356;-79
2021/03/29 03:00:18;;;;;;;8.13;1.73;;;8.90;99.90;;;;;;6161245;23;20002;-80
2021/03/29 03:02:45;;;;;;;9.70;2.20;;;8.90;99.90;;;;;;6162537;23;20005;-80
2021/03/29 03:05:13;;;;;;;6.57;1.98;;;8.90;99.90;;;;;;6162249;23;20001;-78
2021/03/29 03:07:40;;;;;;;9.95;1.95;;;8.90;99.90;;;;;;6188197;23;20009;-78
2021/03/29 03:10:09;;;;;;;14.10;2.05;;;8.90;99.90;;;;;;6189615;23;20001;-79
2021/03/29 03:12:35;;;;;;;8.52;1.90;;;8.90;99.90;;;;;;6189068;23;20052;-80
2021/03/29 03:15:03;;;;;;;4.93;1.40;;;8.90;99.90;;;;;;6162525;23;20015;-78
2021/03/29 03:17:28;;;;;;;7.47;1.40;;;8.90;99.90;;;;;;6189639;23;20076;-79
2021/03/29 03:19:54;;;;;;;8.52;1.77;;;8.90;99.90;;;;;;6163718;23;20333;-79
2021/03/29 03:22:19;;;;;;;8.13;1.50;;;9.00;99.90;;;;;;6189368;23;20302;-78
2021/03/29 03:24:45;;;;;;;9.13;1.60;;;8.90;99.90;;;;;;6190384;23;20077;-79
2021/03/29 03:27:11;;;;;;;11.93;1.88;;;8.90;99.90;;;;;;6188689;23;20005;-79
2021/03/29 03:29:39;;;;;;;8.20;1.92;;;8.90;99.90;;;;;;6163058;23;20045;-78
2021/03/29 03:32:05;;;;;;;12.20;1.40;;;8.80;99.90;;;;;;6187174;23;20076;-78
2021/03/29 03:34:30;;;;;;;6.25;1.58;;;8.80;99.90;;;;;;6189932;23;19993;-79
2021/03/29 03:36:57;;;;;;;7.60;1.58;;;8.90;99.90;;;;;;6191194;23;19997;-79
2021/03/29 03:39:23;;;;;;;8.25;1.17;;;8.80;99.90;;;;;;6189353;23;20027;-78
2021/03/29 03:41:49;;;;;;;5.72;0.63;;;8.90;99.90;;;;;;6188894;23;19997;-80
2021/03/29 03:44:16;;;;;;;8.23;1.15;;;8.90;99.90;;;;;;6161472;23;20039;-77
2021/03/29 03:46:43;;;;;;;4.90;0.95;;;8.90;99.90;;;;;;6188050;23;20044;-78
2021/03/29 03:49:13;;;;;;;5.78;1.58;;;8.70;99.90;;;;;;6189129;23;19997;-78
2021/03/29 03:51:39;;;;;;;6.60;1.40;;;11.30;99.90;;;;;;6161996;23;20024;-80
2021/03/29 03:54:08;;;;;;;10.05;1.33;;;8.80;99.90;;;;;;6162663;23;20005;-80
2021/03/29 03:56:34;;;;;;;5.38;0.90;;;8.90;99.90;;;;;;6162894;23;20002;-78
2021/03/29 03:59:02;;;;;;;6.07;0.82;;;9.00;99.90;;;;;;6190203;23;20052;-79
2021/03/29 04:01:28;;;;;;;7.85;1.10;;;8.90;99.90;;;;;;6162951;23;20001;-80
2021/03/29 04:03:54;;;;;;;5.63;0.98;;;9.00;99.90;;;;;;6189449;23;20327;-81
2021/03/29 04:06:20;;;;;;;11.60;1.17;;;9.00;99.90;;;;;;6163381;23;20037;-78
2021/03/29 04:08:47;;;;;;;8.40;1.45;;;9.00;99.90;;;;;;6162656;23;20463;-79
2021/03/29 04:11:13;;;;;;;5.45;0.63;;;9.00;99.90;;;;;;6163682;23;20009;-80
2021/03/29 04:13:38;;;;;;;5.32;0.73;;;9.00;99.90;;;;;;6190171;23;20444;-79
2021/03/29 04:16:06;;;;;;;10.10;1.08;;;9.00;99.90;;;;;;6163823;23;20008;-78
2021/03/29 04:18:33;;;;;;;8.15;1.80;;;9.10;99.90;;;;;;6190116;23;20028;-79
2021/03/29 04:20:59;;;;;;;10.68;1.58;;;9.10;99.90;;;;;;6191231;23;20005;-79
2021/03/29 04:23:26;;;;;;;5.70;1.10;;;9.10;99.90;;;;;;6193339;23;20028;-80
2021/03/29 04:25:53;;;;;;;4.18;0.63;;;9.10;99.90;;;;;;6169537;23;20012;-80
2021/03/29 04:28:19;;;;;;;4.70;1.60;;;9.10;99.90;;;;;;6169295;23;20083;-80
2021/03/29 04:30:45;;;;;;;10.18;0.85;;;9.10;99.90;;;;;;6168641;23;20005;-80
2021/03/29 04:33:11;;;;;;;8.32;0.98;;;9.10;99.90;;;;;;6169124;23;20013;-80
2021/03/29 04:35:37;;;;;;;10.68;3.22;;;9.10;99.90;;;;;;6168462;23;20088;-80
2021/03/29 04:38:03;;;;;;;5.40;0.90;;;9.10;99.90;;;;;;6168436;23;19997;-80
2021/03/29 04:40:29;;;;;;;7.40;1.75;;;9.00;99.90;;;;;;6195244;23;19997;-80
2021/03/29 04:42:55;;;;;;;6.80;1.45;;;9.10;99.90;;;;;;6193997;23;20056;-80
2021/03/29 04:45:22;;;;;;;9.80;0.95;;;12.60;99.90;;;;;;6168650;23;20348;-81
2021/03/29 04:47:48;;;;;;;8.95;0.98;;;9.00;99.90;;;;;;6196094;23;20008;-81
2021/03/29 04:50:16;;;;;;;9.43;0.90;;;8.90;99.90;;;;;;6168982;23;20008;-80
2021/03/29 04:52:43;;;;;;;9.40;1.25;;;9.90;99.90;;;;;;6195185;23;20005;-80
2021/03/29 04:55:13;;;;;;;10.10;1.38;;;8.90;99.90;;;;;;6167337;23;20024;-79
2021/03/29 04:57:39;;;;;;;5.05;0.50;;;9.50;99.90;;;;;;6164567;23;20092;-79
2021/03/29 05:00:06;;;;;;;7.78;1.77;;;8.90;99.90;;;;;;6164654;23;20376;-78
2021/03/29 05:02:33;;;;;;;5.82;0.55;;;9.00;99.90;;;;;;6191919;23;20068;-81
2021/03/29 05:04:58;;;;;;;6.43;0.68;;;9.00;99.90;;;;;;6167795;23;20060;-80
2021/03/29 05:07:24;;;;;;;6.45;1.02;;;9.00;99.90;;;;;;6164758;23;20005;-81
2021/03/29 05:09:50;;;;;;;7.05;1.15;;;9.00;99.90;;;;;;6165066;23;20001;-80
2021/03/29 05:12:22;;;;;;;2.60;0.45;;;9.00;99.90;;;;;;6166227;23;20005;-78
2021/03/29 05:14:48;;;;;;;3.70;0.73;;;8.90;99.90;;;;;;6193747;23;20001;-81
2021/03/29 05:17:13;;;;;;;9.60;1.85;;;8.90;99.90;;;;;;6194655;23;19997;-81
2021/03/29 05:19:39;;;;;;;8.80;0.93;;;8.90;99.90;;;;;;6168064;23;20001;-79
2021/03/29 05:22:06;;;;;;;9.80;2.28;;;8.90;99.90;;;;;;6167480;23;20005;-80
2021/03/29 05:24:33;;;;;;;11.70;1.63;;;8.90;99.90;;;;;;6193827;23;20320;-80
2021/03/29 05:26:59;;;;;;;2.53;0.82;;;8.90;99.90;;;;;;6193059;23;20008;-80
2021/03/29 05:29:27;;;;;;;5.13;0.85;;;8.90;99.90;;;;;;6167026;23;20001;-79
2021/03/29 05:31:57;;;;;;;9.77;1.98;;;8.90;99.90;;;;;;6166292;23;20065;-76
2021/03/29 05:34:24;;;;;;;6.05;0.98;;;8.90;99.90;;;;;;6160056;23;20005;-76
2021/03/29 05:36:50;;;;;;;6.78;1.48;;;8.90;99.90;;;;;;6186591;23;20336;-76
2021/03/29 05:39:15;;;;;;;7.70;1.38;;;8.90;99.90;;;;;;6186730;23;20335;-76
2021/03/29 05:41:42;;;;;;;8.30;0.85;;;8.80;99.90;;;;;;6160154;23;20088;-76
2021/03/29 05:44:09;;;;;;;4.18;0.98;;;8.80;99.90;;;;;;6186930;23;20446;-76
2021/03/29 05:46:41;;;;;;;3.80;1.08;;;8.80;99.90;;;;;;6159880;23;20068;-76
2021/03/29 05:49:08;;;;;;;9.30;0.70;;;8.80;99.90;;;;;;6159849;23;20063;-76
2021/03/29 05:51:38;;;;;;;5.65;1.00;;;8.80;99.90;;;;;;6186941;23;20094;-73
2021/03/29 05:54:05;;;;;;;9.18;0.93;;;8.80;99.90;;;;;;6186884;23;20005;-73
2021/03/29 05:56:33;;;;;;;3.58;0.80;;;8.80;99.90;;;;;;6187242;23;20069;-74
2021/03/29 05:59:40;;;;;;;7.68;0.75;;;8.80;99.90;;;;;;6160485;23;20063;-74
2021/03/29 06:02:26;;;;;;;13.52;0.90;;;8.80;99.90;;;;;;6185872;23;20005;-74
2021/03/29 06:04:51;;;;;;;7.82;1.40;;;8.90;99.90;;;;;;6161641;23;20008;-75
2021/03/29 06:09:54;;;;;;;4.32;1.15;;;8.90;99.90;;;;;;6187428;23;20025;-74
2021/03/29 06:12:21;;;;;;;8.60;1.03;;;8.60;99.90;;;;;;6187042;23;20384;-74
2021/03/29 06:14:58;;;;;;;7.47;1.17;;;8.90;99.90;;;;;;6154387;23;20234;-75
2021/03/29 06:17:26;;;;;;;5.78;1.27;;;8.90;99.90;;;;;;6157489;23;20008;-74
2021/03/29 06:19:55;;;;;;;4.82;0.60;;;9.00;99.90;;;;;;6131461;23;19997;-74
2021/03/29 06:22:37;;;;;;;8.98;1.08;;;8.90;99.90;;;;;;6131360;23;20008;-73
2021/03/29 06:25:13;;;;;;;16.35;1.60;;;9.00;99.90;;;;;;6186943;23;20321;-75
2021/03/29 06:27:39;;;;;;;8.35;1.10;;;9.00;99.90;;;;;;6187271;23;20008;-74
2021/03/29 06:30:12;;;;;;;4.53;0.70;;;9.00;99.90;;;;;;6158062;23;20008;-78
2021/03/29 06:32:50;;;;;;;3.30;0.52;;;9.10;99.90;;;;;;6186043;23;20009;-78
2021/03/29 06:35:20;;;;;;;6.10;0.90;;;9.10;99.90;;;;;;6186752;23;20320;-77
2021/03/29 06:37:46;;;;;;;8.82;1.00;;;9.10;99.90;;;;;;6186263;23;20058;-77
2021/03/29 06:40:13;;;;;;;5.25;1.05;;;9.00;99.90;;;;;;6160673;23;20047;-76
2021/03/29 06:42:39;;;;;;;7.25;1.95;;;9.10;99.90;;;;;;6188271;23;20356;-77
2021/03/29 06:45:12;;;;;;;5.97;0.60;;;9.10;99.90;;;;;;6188792;23;20005;-77
2021/03/29 06:47:38;;;;;;;4.22;0.70;;;9.00;99.90;;;;;;6163110;23;20065;-75
2021/03/29 06:50:04;;;;;;;7.93;0.68;;;9.00;99.90;;;;;;6162777;23;20418;-77
2021/03/29 06:52:34;;;;;;;5.75;0.80;;;9.00;99.90;;;;;;6189883;23;20005;-78
2021/03/29 06:55:21;;;;;;;10.25;0.80;;;9.10;99.90;;;;;;6190232;23;20001;-78
2021/03/29 06:58:05;;;;;;;9.23;0.55;;;9.20;99.90;;;;;;6187519;23;20021;-79
2021/03/29 07:00:31;;;;;;;3.35;0.73;;;8.90;99.90;;;;;;6162617;23;20031;-80
2021/03/29 07:03:04;;;;;;;6.43;1.02;;;9.30;99.90;;;;;;6190187;23;20020;-78
2021/03/29 07:05:31;;;;;;;6.13;1.48;;;9.40;99.90;;;;;;6191240;23;20337;-77
2021/03/29 07:07:59;;;;;;;9.48;1.58;;;9.70;99.90;;;;;;6191038;23;20392;-78
2021/03/29 07:10:25;;;;;;;5.75;0.95;;;9.60;99.90;;;;;;6189469;23;20005;-78
2021/03/29 07:12:52;;;;;;;3.38;0.93;;;9.60;99.90;;;;;;6164193;23;20001;-80
2021/03/29 07:15:18;;;;;;;7.57;0.63;;;9.60;99.90;;;;;;6164797;23;20008;-82
2021/03/29 07:17:45;;;;;;;7.28;2.17;;;9.70;99.90;;;;;;6190576;23;20413;-79
2021/03/29 07:20:13;;;;;;;10.40;1.30;;;9.90;99.90;;;;;;6190437;23;20332;-79
2021/03/29 07:22:41;;;;;;;4.60;1.15;;;10.00;99.90;;;;;;6163195;23;20026;-77
2021/03/29 07:25:12;;;;;;;4.53;1.08;;;10.00;99.90;;;;;;6163528;23;20027;-78
2021/03/29 07:27:48;;;;;;;9.60;0.85;;;10.10;99.90;;;;;;6163476;23;20092;-79
2021/03/29 07:30:16;;;;;;;8.75;1.27;;;10.20;99.90;;;;;;6190135;23;20416;-78
2021/03/29 07:32:51;;;;;;;6.80;0.63;;;10.30;99.90;;;;;;6163172;23;20080;-78
2021/03/29 07:35:18;;;;;;;9.35;1.98;;;10.30;99.90;;;;;;6188412;23;19997;-78
2021/03/29 07:37:54;;;;;;;8.32;1.10;;;10.40;99.90;;;;;;6189029;23;20033;-77
2021/03/29 07:40:20;;;;;;;7.75;0.88;;;10.40;99.90;;;;;;6187219;23;20001;-80
2021/03/29 07:42:53;;;;;;;6.05;1.20;;;10.50;99.90;;;;;;6189492;23;20387;-78
2021/03/29 07:45:39;;;;;;;6.85;0.75;;;10.60;99.90;;;;;;6162398;23;20012;-77
2021/03/29 07:48:06;;;;;;;5.55;0.73;;;10.50;99.90;;;;;;6190735;23;20001;-77
2021/03/29 07:50:31;;;;;;;8.93;0.70;;;10.60;99.90;;;;;;6166163;23;20028;-79
2021/03/29 07:53:10;;;;;;;9.93;2.15;;;10.60;99.90;;;;;;6192366;23;20005;-81
2021/03/29 07:55:37;;;;;;;;;;;10.70;99.90;;;;;;6188028;22;20025;-80
2021/03/29 07:58:14;;;;;;;14.98;1.63;;;12.50;99.90;;;;;;6164511;23;19900;-79
2021/03/29 08:00:42;;;;;;;9.02;1.27;;;10.80;99.90;;;;;;6192156;23;20380;-79
2021/03/29 08:03:11;;;;;;;4.53;1.03;;;10.90;99.90;;;;;;6163790;23;20317;-80
2021/03/29 08:08:27;;;;;;;6.00;1.23;;;11.10;99.90;;;;;;6189584;23;20025;-79
2021/03/29 08:11:17;;;;;;;9.05;1.00;;;14.00;99.90;;;;;;6163397;23;20012;-76
2021/03/29 08:13:56;;;;;;;5.57;0.88;;;11.20;99.90;;;;;;6190391;23;20092;-79
2021/03/29 08:16:30;;;;;;;6.40;0.95;;;11.20;99.90;;;;;;6138484;23;20008;-77
2021/03/29 08:19:20;;;;;;;11.02;1.90;;;11.20;99.90;;;;;;6161026;23;20006;-81
2021/03/29 08:21:57;;;;;;;8.15;0.98;;;11.20;99.90;;;;;;6160791;23;19998;-79
2021/03/29 08:24:29;;;;;;;10.05;1.38;;;11.30;99.90;;;;;;6134732;23;20087;-80
2021/03/29 08:26:57;;;;;;;8.68;1.63;;;11.40;99.90;;;;;;6133743;23;20033;-79
2021/03/29 08:29:34;;;;;;;6.45;1.70;;;11.60;99.90;;;;;;6162213;23;20028;-79
2021/03/29 08:32:04;;;;;;;6.30;0.50;;;11.60;99.90;;;;;;6136148;23;20006;-79
2021/03/29 08:34:37;;;;;;;7.80;1.05;;;11.50;99.90;;;;;;6135720;23;20005;-80
2021/03/29 08:37:05;;;;;;;7.20;1.40;;;11.60;99.90;;;;;;6134205;23;20318;-77
2021/03/29 08:39:33;;;;;;;3.83;0.65;;;11.70;99.90;;;;;;6135055;23;20006;-79
2021/03/29 08:41:59;;;;;;;5.03;0.63;;;11.70;99.90;;;;;;6161730;23;20073;-78
2021/03/29 08:44:29;;;;;;;5.00;0.80;;;12.00;99.90;;;;;;6161651;23;20002;-80
2021/03/29 08:46:56;;;;;;;9.48;0.85;;;12.00;99.90;;;;;;6138313;23;20095;-84
2021/03/29 08:49:25;;;;;;;7.80;1.27;;;12.10;99.90;;;;;;6162922;23;20057;-84
2021/03/29 08:51:52;;;;;;;5.80;1.35;;;12.10;99.90;;;;;;6159760;23;20001;-81
2021/03/29 08:54:18;;;;;;;14.85;2.58;;;12.10;99.90;;;;;;6134748;23;20012;-80
2021/03/29 08:56:51;;;;;;;4.45;0.93;;;12.10;99.90;;;;;;6158336;23;20084;-84
2021/03/29 08:59:17;;;;;;;11.07;1.52;;;12.20;99.90;;;;;;6136716;23;19998;-83
2021/03/29 09:01:43;;;;;;;4.35;0.63;;;12.20;99.90;;;;;;6138043;23;20093;-80
2021/03/29 09:04:10;;;;;;;7.10;1.52;;;10.60;99.90;;;;;;6164103;23;20005;-79
2021/03/29 09:06:38;;;;;;;6.88;0.40;;;15.00;99.90;;;;;;6164520;23;20005;-78
2021/03/29 09:09:11;;;;;;;5.70;0.82;;;12.30;99.90;;;;;;6166855;23;20467;-78
2021/03/29 09:11:45;;;;;;;4.03;1.05;;;12.30;99.90;;;;;;6190211;23;20061;-78
2021/03/29 09:14:14;;;;;;;6.47;0.82;;;12.30;99.90;;;;;;6164260;23;20013;-83
2021/03/29 09:16:40;;;;;;;3.55;0.80;;;12.50;99.90;;;;;;6164417;23;19997;-80
2021/03/29 09:19:11;;;;;;;4.97;1.27;;;12.60;99.90;;;;;;6163597;23;20092;-81
2021/03/29 09:21:39;;;;;;;19.30;2.08;;;12.70;99.90;;;;;;6163393;23;20317;-78
2021/03/29 09:24:18;;;;;;;5.82;0.75;;;12.80;99.90;;;;;;6164041;23;20048;-80
2021/03/29 09:26:57;;;;;;;5.90;0.60;;;12.90;99.90;;;;;;6195623;23;20095;-80
2021/03/29 09:29:31;;;;;;;14.23;2.00;;;12.90;99.90;;;;;;6197590;23;20424;-81
2021/03/29 09:32:02;;;;;;;13.98;0.90;;;12.90;99.70;;;;;;6197756;23;20005;-80
2021/03/29 09:34:28;;;;;;;3.70;0.85;;;12.80;99.90;;;;;;6169936;23;20468;-82
2021/03/29 09:36:54;;;;;;;8.45;1.08;;;12.90;99.90;;;;;;6169298;23;20013;-81
2021/03/29 09:39:27;;;;;;;6.72;0.77;;;14.50;99.90;;;;;;6169381;23;20067;-83
2021/03/29 09:41:53;;;;;;;9.38;0.73;;;13.10;99.70;;;;;;6193696;23;19997;-79
2021/03/29 09:44:25;;;;;;;9.02;0.77;;;13.20;99.80;;;;;;6187162;23;20012;-78
2021/03/29 09:46:55;;;;;;;5.15;1.63;;;13.40;99.90;;;;;;6187266;23;20008;-80
2021/03/29 09:49:21;;;;;;;5.82;1.15;;;13.70;97.10;;;;;;6187901;23;20043;-75
2021/03/29 09:51:49;;;;;;;4.63;0.98;;;13.60;95.80;;;;;;6161502;23;20028;-79
2021/03/29 09:54:37;;;;;;;5.70;1.02;;;13.70;97.60;;;;;;6161499;23;20001;-79
2021/03/29 09:57:15;;;;;;;5.38;0.80;;;13.80;98.10;;;;;;6189765;23;20047;-80
2021/03/29 09:59:43;;;;;;;6.57;0.90;;;13.80;94.10;;;;;;6163260;23;20333;-80
2021/03/29 10:02:16;;;;;;;5.90;0.40;;;15.40;95.70;;;;;;6160709;23;20009;-79
2021/03/29 10:04:43;;;;;;;11.20;1.02;;;13.90;96.20;;;;;;6162366;23;20005;-79
2021/03/29 10:07:15;;;;;;;7.60;1.45;;;14.00;94.20;;;;;;6163366;23;20051;-80
2021/03/29 10:09:45;;;;;;;5.30;0.40;;;15.60;95.30;;;;;;6163758;23;20001;-80
2021/03/29 10:12:23;;;;;;;4.50;1.05;;;14.10;94.50;;;;;;6163597;23;20009;-79
2021/03/29 10:14:48;;;;;;;5.95;1.15;;;14.00;93.00;;;;;;6163932;23;20313;-80
2021/03/29 10:17:16;;;;;;;7.60;0.50;;;14.20;92.60;;;;;;6164566;23;20135;-80
2021/03/29 10:19:42;;;;;;;2.95;0.93;;;14.10;92.90;;;;;;6163978;23;20069;-79
2021/03/29 10:22:15;;;;;;;5.38;0.70;;;14.10;93.10;;;;;;6165986;23;20397;-80
2021/03/29 10:25:00;;;;;;;8.50;1.00;;;14.00;92.10;;;;;;6163826;23;20004;-76
2021/03/29 10:27:41;;;;;;;4.82;0.50;;;14.10;93.20;;;;;;6160462;23;20005;-73
2021/03/29 10:30:09;;;;;;;5.95;1.25;;;14.20;92.10;;;;;;6160392;23;20009;-76
2021/03/29 10:32:35;;;;;;;5.57;0.60;;;14.20;92.50;;;;;;6186962;23;20005;-79
2021/03/29 10:35:00;;;;;;;8.85;1.75;;;14.20;91.90;;;;;;6187519;23;20008;-77
2021/03/29 10:37:28;;;;;;;8.30;1.60;;;14.20;91.60;;;;;;6188212;23;20328;-76
2021/03/29 10:39:56;;;;;;;4.75;0.85;;;14.30;93.40;;;;;;6187366;23;20001;-77
2021/03/29 10:42:26;;;;;;;5.75;1.13;;;14.50;91.30;;;;;;6161251;23;20005;-76
2021/03/29 10:44:53;;;;;;;12.98;1.67;;;14.50;91.70;;;;;;6186645;23;20077;-75
2021/03/29 10:47:20;;;;;;;4.00;0.90;;;14.60;89.80;;;;;;6164179;23;20021;-78
2021/03/29 10:49:45;;;;;;;4.53;0.77;;;13.70;89.20;;;;;;6165155;23;19997;-81
2021/03/29 10:52:12;;;;;;;11.43;1.50;;;15.00;90.20;;;;;;6190829;23;20008;-78
2021/03/29 10:54:38;;;;;;;8.85;1.08;;;14.80;91.20;;;;;;6166352;23;20005;-82
2021/03/29 10:57:04;;;;;;;5.38;0.82;;;15.20;89.70;;;;;;6191851;23;20070;-79
2021/03/29 10:59:30;;;;;;;7.18;0.95;;;15.00;87.90;;;;;;6190597;22;20021;-79
2021/03/29 11:01:56;;;;;;;7.85;1.02;;;15.70;88.40;;;;;;6164229;23;20008;-81
2021/03/29 11:04:22;;;;;;;3.47;1.20;;;15.00;86.30;;;;;;6192361;23;20005;-81
2021/03/29 11:06:48;;;;;;;8.50;0.95;;;15.00;84.10;;;;;;6167050;23;20005;-81
2021/03/29 11:09:13;;;;;;;12.68;0.77;;;15.30;85.70;;;;;;6164252;23;20011;-84
2021/03/29 11:11:39;;;;;;;3.88;0.43;;;15.40;80.80;;;;;;6166695;23;20005;-80
2021/03/29 11:14:05;;;;;;;7.10;0.75;;;15.50;82.90;;;;;;6167272;23;20044;-79
2021/03/29 11:16:34;;;;;;;6.72;1.48;;;15.80;81.50;;;;;;6167324;23;20001;-82
2021/03/29 11:19:00;;;;;;;6.25;0.80;;;17.90;80.00;;;;;;6164923;23;19997;-80
2021/03/29 11:21:26;;;;;;;8.10;1.55;;;17.00;78.90;;;;;;6190405;23;20072;-80
2021/03/29 11:23:52;;;;;;;6.88;0.98;;;16.30;74.40;;;;;;6165342;23;20001;-82
2021/03/29 11:26:18;;;;;;;4.80;0.70;;;18.20;73.70;;;;;;6160349;23;20055;-78
2021/03/29 11:28:43;;;;;;;4.68;1.02;;;16.50;71.70;;;;;;6160649;23;20017;-77
2021/03/29 11:31:09;;;;;;;4.45;0.85;;;20.10;76.20;;;;;;6160486;23;20004;-76
2021/03/29 11:33:35;;;;;;;7.00;1.13;;;19.40;72.90;;;;;;6188398;23;20035;-74
2021/03/29 11:36:00;;;;;;;6.93;1.10;;;16.10;73.60;;;;;;6187948;23;20302;-77
2021/03/29 11:38:26;;;;;;;2.47;0.68;;;16.60;71.60;;;;;;6160984;23;20001;-76
2021/03/29 11:40:52;;;;;;;4.95;0.63;;;16.70;68.60;;;;;;6161648;23;20001;-76
2021/03/29 11:43:18;;;;;;;13.13;1.70;;;16.60;68.90;;;;;;6160521;23;20056;-78
2021/03/29 11:45:45;;;;;;;6.13;1.27;;;16.60;69.40;;;;;;6187800;23;20002;-80
2021/03/29 11:48:10;;;;;;;3.42;0.32;;;16.80;68.80;;;;;;6162486;23;20340;-77
2021/03/29 11:50:37;;;;;;;6.20;1.23;;;16.40;69.90;;;;;;6187381;23;20058;-77
2021/03/29 11:53:03;;;;;;;13.63;1.48;;;16.60;68.90;;;;;;6161442;23;20092;-78
2021/03/29 11:55:28;;;;;;;6.00;1.02;;;16.60;68.90;;;;;;6158234;23;20024;-77
2021/03/29 11:57:55;;;;;;;3.80;0.70;;;19.70;73.60;;;;;;6185721;23;20037;-77
2021/03/29 12:00:27;;;;;;;5.95;0.90;;;20.00;73.10;;;;;;6185557;22;20452;-74
2021/03/29 12:05:46;;;;;;;5.45;1.02;;;16.90;71.10;;;;;;6188621;23;20409;-80
2021/03/29 12:08:22;;;;;;;8.25;2.17;;;17.10;69.40;;;;;;6187408;23;20016;-76
2021/03/29 12:13:33;;;;;;;4.70;1.00;;;17.30;69.10;;;;;;6188262;23;20078;-79
2021/03/29 12:16:00;;;;;;;3.72;0.50;;;17.40;69.60;;;;;;6190518;23;20031;-79
2021/03/29 12:18:41;;;;;;;4.57;0.63;;;17.50;60.40;;;;;;6163073;23;20005;-78
2021/03/29 12:21:11;;;;;;;9.35;0.47;;;17.20;64.30;;;;;;6187272;23;20076;-76
2021/03/29 12:23:41;;;;;;;4.90;0.88;;;17.10;60.90;;;;;;6185696;23;20005;-75
2021/03/29 12:26:07;;;;;;;5.30;0.57;;;17.20;59.30;;;;;;6161782;23;20005;-77
2021/03/29 12:28:34;;;;;;;8.82;0.30;;;17.70;59.10;;;;;;6163982;23;20005;-76
2021/03/29 12:31:00;;;;;;;3.13;0.28;;;17.20;57.60;;;;;;6160579;23;20433;-78
2021/03/29 12:33:29;;;;;;;3.10;0.45;;;17.30;58.80;;;;;;6188035;23;20001;-76
2021/03/29 12:35:58;;;;;;;5.80;0.63;;;17.60;58.00;;;;;;6161977;23;20504;-78
2021/03/29 12:38:26;;;;;;;3.90;0.22;;;17.80;57.20;;;;;;6192471;23;20005;-79
2021/03/29 12:40:56;;;;;;;3.95;0.20;;;18.60;57.10;;;;;;6169551;23;20004;-79
2021/03/29 12:43:45;;;;;;;3.00;0.20;;;18.20;58.80;;;;;;6172939;23;20005;-79
2021/03/29 12:46:17;;;;;;;4.20;0.85;;;18.50;57.20;;;;;;6193053;23;20009;-79
2021/03/29 12:48:43;;;;;;;3.72;0.30;;;18.10;54.50;;;;;;6164257;23;20005;-77
2021/03/29 12:51:08;;;;;;;3.40;0.40;;;18.30;55.40;;;;;;6191132;23;20084;-80
2021/03/29 12:53:35;;;;;;;4.45;0.57;;;18.60;55.20;;;;;;6193017;23;20332;-80
2021/03/29 12:56:02;;;;;;;6.55;0.40;;;18.50;55.00;;;;;;6171822;23;20005;-80
2021/03/29 12:58:28;;;;;;;7.32;0.73;;;18.70;56.60;;;;;;6166666;23;20001;-79
2021/03/29 13:00:54;;;;;;;4.63;0.70;;;19.20;56.30;;;;;;6166665;23;20005;-80
2021/03/29 13:03:23;;;;;;;8.40;0.70;;;19.30;54.60;;;;;;6166693;23;20088;-78
2021/03/29 13:05:56;;;;;;;5.82;0.70;;;20.50;55.20;;;;;;6192598;23;20065;-77
2021/03/29 13:08:26;;;;;;;4.22;0.95;;;19.50;54.60;;;;;;6191873;23;20001;-78
2021/03/29 13:11:05;;;;;;;2.10;0.50;;;19.80;52.50;;;;;;6169142;23;20005;-79
2021/03/29 13:13:33;;;;;;;8.70;0.77;;;20.00;53.80;;;;;;6191762;23;20008;-79